sensor_id;sensor_type;location;lat;lon;timestamp;temperature;humidity
26182;DHT22;13927;51.534;11.866;2023-04-03T00:00:54;1.50;99.90
26182;DHT22;13927;51.534;11.866;2023-04-03T00:03:19;1.60;99.90
26182;DHT22;13927;51.534;11.866;2023-04-03T00:05:45;1.60;99.90
26182;DHT22;13927;51.534;11.866;2023-04-03T00:08:11;1.70;99.90
26182;DHT22;13927;51.534;11.866;2023-04-03T00:10:37;1.70;99.90
26182;DHT22;13927;51.534;11.866;2023-04-03T00:13:04;1.70;99.90
26182;DHT22;13927;51.534;11.866;2023-04-03T00:15:30;1.70;99.90
26182;DHT22;13927;51.534;11.866;2023-04-03T00:17:56;1.70;99.90
26182;DHT22;13927;51.534;11.866;2023-04-03T00:20:22;1.70;99.90
26182;DHT22;13927;51.534;11.866;2023-04-03T00:22:47;1.70;99.90
26182;DHT22;13927;51.534;11.866;2023-04-03T00:25:13;1.60;99.90
26182;DHT22;13927;51.534;11.866;2023-04-03T00:27:39;1.60;99.90
26182;DHT22;13927;51.534;11.866;2023-04-03T00:30:05;1.60;99.90
26182;DHT22;13927;51.534;11.866;2023-04-03T00:32:32;1.60;99.90
26182;DHT22;13927;51.534;11.866;2023-04-03T00:34:58;1.50;99.90
26182;DHT22;13927;51.534;11.866;2023-04-03T00:37:24;1.50;99.90
26182;DHT22;13927;51.534;11.866;2023-04-03T00:39:50;1.60;99.90
26182;DHT22;13927;51.534;11.866;2023-04-03T00:42:15;1.60;99.90
26182;DHT22;13927;51.534;11.866;2023-04-03T00:47:08;1.50;99.90
26182;DHT22;13927;51.534;11.866;2023-04-03T00:49:36;1.60;99.90
26182;DHT22;13927;51.534;11.866;2023-04-03T00:52:02;1.50;99.90
26182;DHT22;13927;51.534;11.866;2023-04-03T00:54:29;1.50;99.90
26182;DHT22;13927;51.534;11.866;2023-04-03T00:56:55;1.50;99.90
26182;DHT22;13927;51.534;11.866;2023-04-03T00:59:23;1.40;99.90
26182;DHT22;13927;51.534;11.866;2023-04-03T01:01:55;1.40;99.90
26182;DHT22;13927;51.534;11.866;2023-04-03T01:04:28;1.40;99.90
26182;DHT22;13927;51.534;11.866;2023-04-03T01:06:55;1.40;99.90
26182;DHT22;13927;51.534;11.866;2023-04-03T01:09:22;1.40;99.90
26182;DHT22;13927;51.534;11.866;2023-04-03T01:11:48;1.30;99.90
26182;DHT22;13927;51.534;11.866;2023-04-03T01:14:13;1.30;99.90
26182;DHT22;13927;51.534;11.866;2023-04-03T01:16:39;1.30;99.90
26182;DHT22;13927;51.534;11.866;2023-04-03T01:19:06;1.20;99.90
26182;DHT22;13927;51.534;11.866;2023-04-03T01:24:36;1.20;99.90
26182;DHT22;13927;51.534;11.866;2023-04-03T01:27:04;1.10;99.90
26182;DHT22;13927;51.534;11.866;2023-04-03T01:29:31;1.10;99.90
26182;DHT22;13927;51.534;11.866;2023-04-03T01:31:58;1.10;99.90
26182;DHT22;13927;51.534;11.866;2023-04-03T01:34:25;1.00;99.90
26182;DHT22;13927;51.534;11.866;2023-04-03T01:36:52;1.00;99.90
26182;DHT22;13927;51.534;11.866;2023-04-03T01:39:18;0.90;99.90
26182;DHT22;13927;51.534;11.866;2023-04-03T01:41:44;0.90;99.90
26182;DHT22;13927;51.534;11.866;2023-04-03T01:44:10;0.90;99.90
26182;DHT22;13927;51.534;11.866;2023-04-03T01:46:35;0.90;99.90
26182;DHT22;13927;51.534;11.866;2023-04-03T01:49:03;0.80;99.90
26182;DHT22;13927;51.534;11.866;2023-04-03T01:51:29;0.80;99.90
26182;DHT22;13927;51.534;11.866;2023-04-03T01:53:55;0.80;99.90
26182;DHT22;13927;51.534;11.866;2023-04-03T01:56:21;0.70;99.90
26182;DHT22;13927;51.534;11.866;2023-04-03T01:58:46;0.70;99.90
26182;DHT22;13927;51.534;11.866;2023-04-03T02:01:12;0.70;99.90
26182;DHT22;13927;51.534;11.866;2023-04-03T02:03:38;0.60;99.90
26182;DHT22;13927;51.534;11.866;2023-04-03T02:06:03;0.60;99.90
26182;DHT22;13927;51.534;11.866;2023-04-03T02:08:29;0.40;99.90
26182;DHT22;13927;51.534;11.866;2023-04-03T02:10:55;0.30;99.90
26182;DHT22;13927;51.534;11.866;2023-04-03T02:13:21;0.20;99.90
26182;DHT22;13927;51.534;11.866;2023-04-03T02:15:46;0.10;99.90
26182;DHT22;13927;51.534;11.866;2023-04-03T02:18:12;0.10;99.90
26182;DHT22;13927;51.534;11.866;2023-04-03T02:20:38;0.00;99.90
26182;DHT22;13927;51.534;11.866;2023-04-03T02:23:04;-0.10;99.90
26182;DHT22;13927;51.534;11.866;2023-04-03T02:25:31;0.00;99.90
26182;DHT22;13927;51.534;11.866;2023-04-03T02:27:57;-0.10;99.90
26182;DHT22;13927;51.534;11.866;2023-04-03T02:30:22;-0.10;99.90
26182;DHT22;13927;51.534;11.866;2023-04-03T02:32:48;-0.10;99.90
26182;DHT22;13927;51.534;11.866;2023-04-03T02:35:14;-0.10;99.90
26182;DHT22;13927;51.534;11.866;2023-04-03T02:37:39;-0.20;99.90
26182;DHT22;13927;51.534;11.866;2023-04-03T02:40:06;-0.10;99.90
26182;DHT22;13927;51.534;11.866;2023-04-03T02:42:32;-0.20;99.90
26182;DHT22;13927;51.534;11.866;2023-04-03T02:44:57;-0.20;99.90
26182;DHT22;13927;51.534;11.866;2023-04-03T02:47:26;-0.30;99.90
26182;DHT22;13927;51.534;11.866;2023-04-03T02:49:52;-0.30;99.90
26182;DHT22;13927;51.534;11.866;2023-04-03T02:52:18;-0.20;99.90
26182;DHT22;13927;51.534;11.866;2023-04-03T02:54:43;-0.30;99.90
26182;DHT22;13927;51.534;11.866;2023-04-03T02:57:09;-0.30;99.90
26182;DHT22;13927;51.534;11.866;2023-04-03T02:59:36;-0.30;99.90
26182;DHT22;13927;51.534;11.866;2023-04-03T03:02:02;-0.30;99.90
26182;DHT22;13927;51.534;11.866;2023-04-03T03:04:27;-0.30;99.90
26182;DHT22;13927;51.534;11.866;2023-04-03T03:06:53;-0.30;99.90
26182;DHT22;13927;51.534;11.866;2023-04-03T03:09:19;-0.40;99.90
26182;DHT22;13927;51.534;11.866;2023-04-03T03:11:44;-0.40;99.90
26182;DHT22;13927;51.534;11.866;2023-04-03T03:14:10;-0.40;99.90
26182;DHT22;13927;51.534;11.866;2023-04-03T03:16:36;-0.40;99.90
26182;DHT22;13927;51.534;11.866;2023-04-03T03:19:01;-0.50;99.90
26182;DHT22;13927;51.534;11.866;2023-04-03T03:21:27;-0.50;99.90
26182;DHT22;13927;51.534;11.866;2023-04-03T03:23:53;-0.50;99.90
26182;DHT22;13927;51.534;11.866;2023-04-03T03:26:19;-0.60;99.90
26182;DHT22;13927;51.534;11.866;2023-04-03T03:28:44;-0.60;99.90
26182;DHT22;13927;51.534;11.866;2023-04-03T03:31:10;-0.60;99.90
26182;DHT22;13927;51.534;11.866;2023-04-03T03:33:36;-0.60;99.90
26182;DHT22;13927;51.534;11.866;2023-04-03T03:36:01;-0.60;99.90
26182;DHT22;13927;51.534;11.866;2023-04-03T03:38:27;-0.60;99.90
26182;DHT22;13927;51.534;11.866;2023-04-03T03:40:53;-0.60;99.90
26182;DHT22;13927;51.534;11.866;2023-04-03T03:43:19;-0.60;99.90
26182;DHT22;13927;51.534;11.866;2023-04-03T03:45:46;-0.70;99.90
26182;DHT22;13927;51.534;11.866;2023-04-03T03:48:15;-0.70;99.90
26182;DHT22;13927;51.534;11.866;2023-04-03T03:50:41;-0.70;99.90
26182;DHT22;13927;51.534;11.866;2023-04-03T03:53:06;-0.80;99.90
26182;DHT22;13927;51.534;11.866;2023-04-03T03:55:32;-0.70;99.90
26182;DHT22;13927;51.534;11.866;2023-04-03T03:57:58;-0.80;99.90
26182;DHT22;13927;51.534;11.866;2023-04-03T04:00:23;-0.70;99.90
26182;DHT22;13927;51.534;11.866;2023-04-03T04:02:49;-0.70;99.90
26182;DHT22;13927;51.534;11.866;2023-04-03T04:05:14;-0.70;99.90
26182;DHT22;13927;51.534;11.866;2023-04-03T04:07:40;-0.70;99.90
26182;DHT22;13927;51.534;11.866;2023-04-03T04:10:06;-0.70;99.90
26182;DHT22;13927;51.534;11.866;2023-04-03T04:12:32;-0.70;99.90
26182;DHT22;13927;51.534;11.866;2023-04-03T04:14:58;-0.70;99.90
26182;DHT22;13927;51.534;11.866;2023-04-03T04:17:23;-0.70;99.90
26182;DHT22;13927;51.534;11.866;2023-04-03T04:19:49;-0.70;99.90
26182;DHT22;13927;51.534;11.866;2023-04-03T04:22:15;-0.70;99.90
26182;DHT22;13927;51.534;11.866;2023-04-03T04:24:40;-0.70;99.90
26182;DHT22;13927;51.534;11.866;2023-04-03T04:27:06;-0.70;99.90
26182;DHT22;13927;51.534;11.866;2023-04-03T04:29:32;-0.70;99.90
26182;DHT22;13927;51.534;11.866;2023-04-03T04:32:01;-0.70;99.90
26182;DHT22;13927;51.534;11.866;2023-04-03T04:34:29;-0.80;99.90
26182;DHT22;13927;51.534;11.866;2023-04-03T04:36:55;-0.70;99.90
26182;DHT22;13927;51.534;11.866;2023-04-03T04:39:21;-0.70;99.90
26182;DHT22;13927;51.534;11.866;2023-04-03T04:41:46;-0.70;99.90
26182;DHT22;13927;51.534;11.866;2023-04-03T04:44:12;-0.80;99.90
26182;DHT22;13927;51.534;11.866;2023-04-03T04:46:38;-0.80;99.90
26182;DHT22;13927;51.534;11.866;2023-04-03T04:49:03;-0.80;99.90
26182;DHT22;13927;51.534;11.866;2023-04-03T04:51:29;-0.70;99.90
26182;DHT22;13927;51.534;11.866;2023-04-03T04:53:55;-0.80;99.90
26182;DHT22;13927;51.534;11.866;2023-04-03T04:56:20;-0.80;99.90
26182;DHT22;13927;51.534;11.866;2023-04-03T04:58:46;-0.80;99.90
26182;DHT22;13927;51.534;11.866;2023-04-03T05:01:12;-0.80;99.90
26182;DHT22;13927;51.534;11.866;2023-04-03T05:03:38;-0.70;99.90
26182;DHT22;13927;51.534;11.866;2023-04-03T05:06:04;-0.70;99.90
26182;DHT22;13927;51.534;11.866;2023-04-03T05:08:30;-0.70;99.90
26182;DHT22;13927;51.534;11.866;2023-04-03T05:10:56;-0.60;99.90
26182;DHT22;13927;51.534;11.866;2023-04-03T05:13:22;-0.60;99.90
26182;DHT22;13927;51.534;11.866;2023-04-03T05:15:48;-0.60;99.90
26182;DHT22;13927;51.534;11.866;2023-04-03T05:18:14;-0.60;99.90
26182;DHT22;13927;51.534;11.866;2023-04-03T05:20:40;-0.50;99.90
26182;DHT22;13927;51.534;11.866;2023-04-03T05:23:05;-0.50;99.90
26182;DHT22;13927;51.534;11.866;2023-04-03T05:25:31;-0.40;99.90
26182;DHT22;13927;51.534;11.866;2023-04-03T05:27:57;-0.40;99.90
26182;DHT22;13927;51.534;11.866;2023-04-03T05:30:23;-0.30;99.90
26182;DHT22;13927;51.534;11.866;2023-04-03T05:32:49;-0.30;99.90
26182;DHT22;13927;51.534;11.866;2023-04-03T05:35:15;-0.20;99.90
26182;DHT22;13927;51.534;11.866;2023-04-03T05:37:41;-0.20;99.90
26182;DHT22;13927;51.534;11.866;2023-04-03T05:40:07;-0.10;99.90
26182;DHT22;13927;51.534;11.866;2023-04-03T05:42:33;-0.10;99.90
26182;DHT22;13927;51.534;11.866;2023-04-03T05:45:00;-0.10;99.90
26182;DHT22;13927;51.534;11.866;2023-04-03T05:47:25;0.00;99.90
26182;DHT22;13927;51.534;11.866;2023-04-03T05:49:51;0.00;99.90
26182;DHT22;13927;51.534;11.866;2023-04-03T05:52:20;0.10;99.90
26182;DHT22;13927;51.534;11.866;2023-04-03T05:54:48;0.10;99.90
26182;DHT22;13927;51.534;11.866;2023-04-03T05:57:31;0.20;99.90
26182;DHT22;13927;51.534;11.866;2023-04-03T06:00:24;0.20;99.90
26182;DHT22;13927;51.534;11.866;2023-04-03T06:02:55;0.40;99.90
26182;DHT22;13927;51.534;11.866;2023-04-03T06:05:59;0.40;99.90
26182;DHT22;13927;51.534;11.866;2023-04-03T06:12:24;0.50;99.90
26182;DHT22;13927;51.534;11.866;2023-04-03T06:15:40;0.70;99.90
26182;DHT22;13927;51.534;11.866;2023-04-03T06:22:05;0.90;99.90
26182;DHT22;13927;51.534;11.866;2023-04-03T06:25:23;1.00;99.90
26182;DHT22;13927;51.534;11.866;2023-04-03T06:28:29;1.10;99.90
26182;DHT22;13927;51.534;11.866;2023-04-03T06:31:37;1.30;99.90
26182;DHT22;13927;51.534;11.866;2023-04-03T06:35:07;1.40;99.90
26182;DHT22;13927;51.534;11.866;2023-04-03T06:44:46;1.80;99.90
26182;DHT22;13927;51.534;11.866;2023-04-03T07:00:34;2.30;99.90
26182;DHT22;13927;51.534;11.866;2023-04-03T07:09:38;2.90;99.90
26182;DHT22;13927;51.534;11.866;2023-04-03T07:13:27;3.00;99.90
26182;DHT22;13927;51.534;11.866;2023-04-03T07:20:05;3.20;99.90
26182;DHT22;13927;51.534;11.866;2023-04-03T07:33:50;3.60;99.90
26182;DHT22;13927;51.534;11.866;2023-04-03T07:46:32;4.50;99.90
26182;DHT22;13927;51.534;11.866;2023-04-03T07:49:25;4.70;99.90
26182;DHT22;13927;51.534;11.866;2023-04-03T07:52:17;4.70;99.90
26182;DHT22;13927;51.534;11.866;2023-04-03T07:59:11;4.30;99.90
26182;DHT22;13927;51.534;11.866;2023-04-03T08:02:09;4.30;99.90
26182;DHT22;13927;51.534;11.866;2023-04-03T08:08:51;4.30;99.90
26182;DHT22;13927;51.534;11.866;2023-04-03T08:20:00;4.80;99.90
26182;DHT22;13927;51.534;11.866;2023-04-03T08:26:54;4.60;99.90
26182;DHT22;13927;51.534;11.866;2023-04-03T08:29:46;4.90;99.90
26182;DHT22;13927;51.534;11.866;2023-04-03T08:36:23;5.10;99.90
26182;DHT22;13927;51.534;11.866;2023-04-03T08:39:55;5.20;99.90
26182;DHT22;13927;51.534;11.866;2023-04-03T08:49:22;5.80;99.90
26182;DHT22;13927;51.534;11.866;2023-04-03T08:52:57;5.80;99.90
26182;DHT22;13927;51.534;11.866;2023-04-03T09:12:21;5.80;99.90
26182;DHT22;13927;51.534;11.866;2023-04-03T09:15:59;5.60;99.90
26182;DHT22;13927;51.534;11.866;2023-04-03T09:22:50;5.40;99.90
26182;DHT22;13927;51.534;11.866;2023-04-03T09:29:14;6.90;99.90
26182;DHT22;13927;51.534;11.866;2023-04-03T09:59:36;8.00;99.90
26182;DHT22;13927;51.534;11.866;2023-04-03T10:06:56;9.10;99.90
26182;DHT22;13927;51.534;11.866;2023-04-03T10:10:22;9.50;99.90
26182;DHT22;13927;51.534;11.866;2023-04-03T10:16:20;9.30;99.90
26182;DHT22;13927;51.534;11.866;2023-04-03T10:30:02;10.30;99.90
26182;DHT22;13927;51.534;11.866;2023-04-03T10:57:36;11.60;99.90
26182;DHT22;13927;51.534;11.866;2023-04-03T11:00:16;11.60;99.90
26182;DHT22;13927;51.534;11.866;2023-04-03T11:06:58;9.60;99.90
26182;DHT22;13927;51.534;11.866;2023-04-03T11:16:50;8.20;99.90
26182;DHT22;13927;51.534;11.866;2023-04-03T11:43:21;8.90;99.90
26182;DHT22;13927;51.534;11.866;2023-04-03T12:04:11;7.70;99.90
26182;DHT22;13927;51.534;11.866;2023-04-03T12:07:34;7.80;99.90
26182;DHT22;13927;51.534;11.866;2023-04-03T13:03:48;8.50;99.90
26182;DHT22;13927;51.534;11.866;2023-04-03T13:07:29;8.40;99.90
26182;DHT22;13927;51.534;11.866;2023-04-03T13:13:38;8.60;99.90
26182;DHT22;13927;51.534;11.866;2023-04-03T13:17:22;8.40;99.90
26182;DHT22;13927;51.534;11.866;2023-04-03T13:43:16;7.00;99.90
26182;DHT22;13927;51.534;11.866;2023-04-03T13:50:18;6.80;99.90
26182;DHT22;13927;51.534;11.866;2023-04-03T14:14:27;8.10;99.90
26182;DHT22;13927;51.534;11.866;2023-04-03T14:20:42;9.50;99.90
26182;DHT22;13927;51.534;11.866;2023-04-03T14:23:36;9.20;99.90
26182;DHT22;13927;51.534;11.866;2023-04-03T14:36:57;8.00;99.90
26182;DHT22;13927;51.534;11.866;2023-04-03T14:39:55;7.50;99.90
26182;DHT22;13927;51.534;11.866;2023-04-03T14:43:19;7.20;99.90
26182;DHT22;13927;51.534;11.866;2023-04-03T15:06:19;7.20;99.90
26182;DHT22;13927;51.534;11.866;2023-04-03T15:08:46;7.30;99.90
26182;DHT22;13927;51.534;11.866;2023-04-03T15:11:12;7.30;99.90
26182;DHT22;13927;51.534;11.866;2023-04-03T15:13:42;7.30;99.90
26182;DHT22;13927;51.534;11.866;2023-04-03T15:16:17;7.20;99.90
26182;DHT22;13927;51.534;11.866;2023-04-03T15:18:44;7.20;99.90
26182;DHT22;13927;51.534;11.866;2023-04-03T15:21:11;7.20;99.90
26182;DHT22;13927;51.534;11.866;2023-04-03T15:23:51;7.20;99.90
26182;DHT22;13927;51.534;11.866;2023-04-03T15:36:20;7.10;99.90
26182;DHT22;13927;51.534;11.866;2023-04-03T15:38:45;7.10;99.90
26182;DHT22;13927;51.534;11.866;2023-04-03T15:41:11;7.10;99.90
26182;DHT22;13927;51.534;11.866;2023-04-03T15:43:37;7.00;99.90
26182;DHT22;13927;51.534;11.866;2023-04-03T15:46:03;7.00;99.90
26182;DHT22;13927;51.534;11.866;2023-04-03T15:48:29;6.90;99.90
26182;DHT22;13927;51.534;11.866;2023-04-03T15:50:55;6.90;99.90
26182;DHT22;13927;51.534;11.866;2023-04-03T15:53:21;6.70;99.90
26182;DHT22;13927;51.534;11.866;2023-04-03T15:55:46;6.60;99.90
26182;DHT22;13927;51.534;11.866;2023-04-03T15:58:12;6.60;99.90
26182;DHT22;13927;51.534;11.866;2023-04-03T16:00:38;6.60;99.90
26182;DHT22;13927;51.534;11.866;2023-04-03T16:03:05;6.60;99.90
26182;DHT22;13927;51.534;11.866;2023-04-03T16:05:41;6.60;99.90
26182;DHT22;13927;51.534;11.866;2023-04-03T16:08:08;6.50;99.90
26182;DHT22;13927;51.534;11.866;2023-04-03T16:10:34;6.50;99.90
26182;DHT22;13927;51.534;11.866;2023-04-03T16:13:01;6.40;99.90
26182;DHT22;13927;51.534;11.866;2023-04-03T16:15:27;6.40;99.90
26182;DHT22;13927;51.534;11.866;2023-04-03T16:17:53;6.40;99.90
26182;DHT22;13927;51.534;11.866;2023-04-03T16:20:20;6.30;99.90
26182;DHT22;13927;51.534;11.866;2023-04-03T16:22:47;6.30;99.90
26182;DHT22;13927;51.534;11.866;2023-04-03T16:25:13;6.20;99.90
26182;DHT22;13927;51.534;11.866;2023-04-03T16:27:39;6.20;99.90
26182;DHT22;13927;51.534;11.866;2023-04-03T16:30:06;6.10;99.90
26182;DHT22;13927;51.534;11.866;2023-04-03T16:32:32;6.10;99.90
26182;DHT22;13927;51.534;11.866;2023-04-03T16:34:58;6.10;99.90
26182;DHT22;13927;51.534;11.866;2023-04-03T16:37:25;6.10;99.90
26182;DHT22;13927;51.534;11.866;2023-04-03T16:39:51;6.00;99.90
26182;DHT22;13927;51.534;11.866;2023-04-03T16:42:17;6.00;99.90
26182;DHT22;13927;51.534;11.866;2023-04-03T16:44:43;6.00;99.90
26182;DHT22;13927;51.534;11.866;2023-04-03T16:47:09;5.90;99.90
26182;DHT22;13927;51.534;11.866;2023-04-03T16:49:35;5.90;99.90
26182;DHT22;13927;51.534;11.866;2023-04-03T16:52:02;6.00;99.90
26182;DHT22;13927;51.534;11.866;2023-04-03T16:54:29;5.90;99.90
26182;DHT22;13927;51.534;11.866;2023-04-03T16:56:55;5.90;99.90
26182;DHT22;13927;51.534;11.866;2023-04-03T16:59:21;5.80;99.90
26182;DHT22;13927;51.534;11.866;2023-04-03T17:01:47;5.80;99.90
26182;DHT22;13927;51.534;11.866;2023-04-03T17:04:13;5.80;99.90
26182;DHT22;13927;51.534;11.866;2023-04-03T17:06:40;5.70;99.90
26182;DHT22;13927;51.534;11.866;2023-04-03T17:09:06;5.60;99.90
26182;DHT22;13927;51.534;11.866;2023-04-03T17:11:31;5.60;99.90
26182;DHT22;13927;51.534;11.866;2023-04-03T17:13:58;5.60;99.90
26182;DHT22;13927;51.534;11.866;2023-04-03T17:16:24;5.60;99.90
26182;DHT22;13927;51.534;11.866;2023-04-03T17:18:50;5.50;99.90
26182;DHT22;13927;51.534;11.866;2023-04-03T17:21:18;5.50;99.90
26182;DHT22;13927;51.534;11.866;2023-04-03T17:23:44;5.50;99.90
26182;DHT22;13927;51.534;11.866;2023-04-03T17:26:13;5.50;99.90
26182;DHT22;13927;51.534;11.866;2023-04-03T17:28:38;5.50;99.90
26182;DHT22;13927;51.534;11.866;2023-04-03T17:31:06;5.40;99.90
26182;DHT22;13927;51.534;11.866;2023-04-03T17:33:32;5.30;99.90
26182;DHT22;13927;51.534;11.866;2023-04-03T17:36:00;5.40;99.90
26182;DHT22;13927;51.534;11.866;2023-04-03T17:38:29;5.30;99.90
26182;DHT22;13927;51.534;11.866;2023-04-03T17:40:59;5.30;99.90
26182;DHT22;13927;51.534;11.866;2023-04-03T17:43:25;5.30;99.90
26182;DHT22;13927;51.534;11.866;2023-04-03T17:45:51;5.20;99.90
26182;DHT22;13927;51.534;11.866;2023-04-03T17:48:17;5.20;99.90
26182;DHT22;13927;51.534;11.866;2023-04-03T17:50:43;5.20;99.90
26182;DHT22;13927;51.534;11.866;2023-04-03T17:53:10;5.20;99.90
26182;DHT22;13927;51.534;11.866;2023-04-03T17:55:38;5.30;99.90
26182;DHT22;13927;51.534;11.866;2023-04-03T17:58:04;5.30;99.90
26182;DHT22;13927;51.534;11.866;2023-04-03T18:00:30;5.30;99.90
26182;DHT22;13927;51.534;11.866;2023-04-03T18:02:56;5.20;99.90
26182;DHT22;13927;51.534;11.866;2023-04-03T18:05:26;5.20;99.90
26182;DHT22;13927;51.534;11.866;2023-04-03T18:07:55;5.20;99.90
26182;DHT22;13927;51.534;11.866;2023-04-03T18:10:22;5.10;99.90
26182;DHT22;13927;51.534;11.866;2023-04-03T18:12:50;5.00;99.90
26182;DHT22;13927;51.534;11.866;2023-04-03T18:15:17;5.00;99.90
26182;DHT22;13927;51.534;11.866;2023-04-03T18:17:42;5.00;99.90
26182;DHT22;13927;51.534;11.866;2023-04-03T18:20:08;5.00;99.90
26182;DHT22;13927;51.534;11.866;2023-04-03T18:22:36;4.90;99.90
26182;DHT22;13927;51.534;11.866;2023-04-03T18:25:01;4.90;99.90
26182;DHT22;13927;51.534;11.866;2023-04-03T18:27:27;4.90;99.90
26182;DHT22;13927;51.534;11.866;2023-04-03T18:29:57;4.90;99.90
26182;DHT22;13927;51.534;11.866;2023-04-03T18:32:25;4.90;99.90
26182;DHT22;13927;51.534;11.866;2023-04-03T18:34:50;4.90;99.90
26182;DHT22;13927;51.534;11.866;2023-04-03T18:37:16;4.80;99.90
26182;DHT22;13927;51.534;11.866;2023-04-03T18:39:43;4.80;99.90
26182;DHT22;13927;51.534;11.866;2023-04-03T18:42:10;4.80;99.90
26182;DHT22;13927;51.534;11.866;2023-04-03T18:44:38;4.70;99.90
26182;DHT22;13927;51.534;11.866;2023-04-03T18:47:05;4.70;99.90
26182;DHT22;13927;51.534;11.866;2023-04-03T18:49:31;4.60;99.90
26182;DHT22;13927;51.534;11.866;2023-04-03T18:51:58;4.60;99.90
26182;DHT22;13927;51.534;11.866;2023-04-03T18:54:23;4.60;99.90
26182;DHT22;13927;51.534;11.866;2023-04-03T18:56:49;4.60;99.90
26182;DHT22;13927;51.534;11.866;2023-04-03T18:59:15;4.60;99.90
26182;DHT22;13927;51.534;11.866;2023-04-03T19:01:41;4.60;99.90
26182;DHT22;13927;51.534;11.866;2023-04-03T19:04:07;4.60;99.90
26182;DHT22;13927;51.534;11.866;2023-04-03T19:06:33;4.50;99.90
26182;DHT22;13927;51.534;11.866;2023-04-03T19:08:59;4.50;99.90
26182;DHT22;13927;51.534;11.866;2023-04-03T19:11:25;4.50;99.90
26182;DHT22;13927;51.534;11.866;2023-04-03T19:13:51;4.50;99.90
26182;DHT22;13927;51.534;11.866;2023-04-03T19:16:17;4.40;99.90
26182;DHT22;13927;51.534;11.866;2023-04-03T19:18:43;4.40;99.90
26182;DHT22;13927;51.534;11.866;2023-04-03T19:21:08;4.40;99.90
26182;DHT22;13927;51.534;11.866;2023-04-03T19:23:34;4.30;99.90
26182;DHT22;13927;51.534;11.866;2023-04-03T19:26:01;4.30;99.90
26182;DHT22;13927;51.534;11.866;2023-04-03T19:28:28;4.20;99.90
26182;DHT22;13927;51.534;11.866;2023-04-03T19:30:55;4.20;99.90
26182;DHT22;13927;51.534;11.866;2023-04-03T19:33:22;4.20;99.90
26182;DHT22;13927;51.534;11.866;2023-04-03T19:35:47;4.10;99.90
26182;DHT22;13927;51.534;11.866;2023-04-03T19:38:13;4.20;99.90
26182;DHT22;13927;51.534;11.866;2023-04-03T19:40:39;4.20;99.90
26182;DHT22;13927;51.534;11.866;2023-04-03T19:43:11;4.20;99.90
26182;DHT22;13927;51.534;11.866;2023-04-03T19:45:37;4.20;99.90
26182;DHT22;13927;51.534;11.866;2023-04-03T19:48:03;4.10;99.90
26182;DHT22;13927;51.534;11.866;2023-04-03T19:50:30;4.10;99.90
26182;DHT22;13927;51.534;11.866;2023-04-03T19:52:57;4.20;99.90
26182;DHT22;13927;51.534;11.866;2023-04-03T19:55:24;4.20;99.90
26182;DHT22;13927;51.534;11.866;2023-04-03T19:57:50;4.20;99.90
26182;DHT22;13927;51.534;11.866;2023-04-03T20:00:16;4.20;99.90
26182;DHT22;13927;51.534;11.866;2023-04-03T20:02:42;4.30;99.90
26182;DHT22;13927;51.534;11.866;2023-04-03T20:05:08;4.30;99.90
26182;DHT22;13927;51.534;11.866;2023-04-03T20:07:35;4.30;99.90
26182;DHT22;13927;51.534;11.866;2023-04-03T20:10:00;4.30;99.90
26182;DHT22;13927;51.534;11.866;2023-04-03T20:12:26;4.30;99.90
26182;DHT22;13927;51.534;11.866;2023-04-03T20:14:52;4.30;99.90
26182;DHT22;13927;51.534;11.866;2023-04-03T20:17:17;4.20;99.90
26182;DHT22;13927;51.534;11.866;2023-04-03T20:19:43;4.20;99.90
26182;DHT22;13927;51.534;11.866;2023-04-03T20:22:10;4.20;99.90
26182;DHT22;13927;51.534;11.866;2023-04-03T20:24:35;4.20;99.90
26182;DHT22;13927;51.534;11.866;2023-04-03T20:27:01;4.20;99.90
26182;DHT22;13927;51.534;11.866;2023-04-03T20:29:27;4.20;99.90
26182;DHT22;13927;51.534;11.866;2023-04-03T20:31:53;4.20;99.90
26182;DHT22;13927;51.534;11.866;2023-04-03T20:34:19;4.20;99.90
26182;DHT22;13927;51.534;11.866;2023-04-03T20:36:46;4.20;99.90
26182;DHT22;13927;51.534;11.866;2023-04-03T20:39:12;4.10;99.90
26182;DHT22;13927;51.534;11.866;2023-04-03T20:41:38;4.10;99.90
26182;DHT22;13927;51.534;11.866;2023-04-03T20:44:04;4.10;99.90
26182;DHT22;13927;51.534;11.866;2023-04-03T20:46:30;4.10;99.90
26182;DHT22;13927;51.534;11.866;2023-04-03T20:48:55;4.10;99.90
26182;DHT22;13927;51.534;11.866;2023-04-03T20:51:22;4.10;99.90
26182;DHT22;13927;51.534;11.866;2023-04-03T20:53:48;4.10;99.90
26182;DHT22;13927;51.534;11.866;2023-04-03T20:56:14;4.20;99.90
26182;DHT22;13927;51.534;11.866;2023-04-03T20:58:40;4.20;99.90
26182;DHT22;13927;51.534;11.866;2023-04-03T21:03:43;4.10;99.90
26182;DHT22;13927;51.534;11.866;2023-04-03T21:23:06;4.00;99.90
26182;DHT22;13927;51.534;11.866;2023-04-03T21:25:33;3.90;99.90
26182;DHT22;13927;51.534;11.866;2023-04-03T21:28:02;3.90;99.90
26182;DHT22;13927;51.534;11.866;2023-04-03T21:30:29;3.90;99.90
26182;DHT22;13927;51.534;11.866;2023-04-03T21:32:56;3.90;99.90
26182;DHT22;13927;51.534;11.866;2023-04-03T21:35:22;3.90;99.90
26182;DHT22;13927;51.534;11.866;2023-04-03T21:37:48;3.90;99.90
26182;DHT22;13927;51.534;11.866;2023-04-03T21:40:14;3.90;99.90
26182;DHT22;13927;51.534;11.866;2023-04-03T21:42:40;3.90;99.90
26182;DHT22;13927;51.534;11.866;2023-04-03T21:45:06;3.90;99.90
26182;DHT22;13927;51.534;11.866;2023-04-03T21:47:32;3.90;99.90
26182;DHT22;13927;51.534;11.866;2023-04-03T21:49:59;3.90;99.90
26182;DHT22;13927;51.534;11.866;2023-04-03T21:52:25;3.90;99.90
26182;DHT22;13927;51.534;11.866;2023-04-03T21:54:51;3.90;99.90
26182;DHT22;13927;51.534;11.866;2023-04-03T21:57:17;3.90;99.90
26182;DHT22;13927;51.534;11.866;2023-04-03T21:59:42;3.90;99.90
26182;DHT22;13927;51.534;11.866;2023-04-03T22:02:10;3.90;99.90
26182;DHT22;13927;51.534;11.866;2023-04-03T22:04:35;3.90;99.90
26182;DHT22;13927;51.534;11.866;2023-04-03T22:07:01;3.90;99.90
26182;DHT22;13927;51.534;11.866;2023-04-03T22:09:28;3.90;99.90
26182;DHT22;13927;51.534;11.866;2023-04-03T22:11:53;4.00;99.90
26182;DHT22;13927;51.534;11.866;2023-04-03T22:14:19;4.00;99.90
26182;DHT22;13927;51.534;11.866;2023-04-03T22:16:45;3.90;99.90
26182;DHT22;13927;51.534;11.866;2023-04-03T22:19:13;3.90;99.90
26182;DHT22;13927;51.534;11.866;2023-04-03T22:21:39;3.90;99.90
26182;DHT22;13927;51.534;11.866;2023-04-03T22:24:06;3.90;99.90
26182;DHT22;13927;51.534;11.866;2023-04-03T22:26:32;3.80;99.90
26182;DHT22;13927;51.534;11.866;2023-04-03T22:28:59;3.80;99.90
26182;DHT22;13927;51.534;11.866;2023-04-03T22:31:25;3.70;99.90
26182;DHT22;13927;51.534;11.866;2023-04-03T22:33:52;3.70;99.90
26182;DHT22;13927;51.534;11.866;2023-04-03T22:36:20;3.60;99.90
26182;DHT22;13927;51.534;11.866;2023-04-03T22:38:46;3.60;99.90
26182;DHT22;13927;51.534;11.866;2023-04-03T22:41:12;3.60;99.90
26182;DHT22;13927;51.534;11.866;2023-04-03T22:43:37;3.60;99.90